sensor_id;sensor_type;location;lat;lon;timestamp;pressure;altitude;pressure_sealevel;temperature;humidity
20027;BME280;10174;42.688;23.344;2023-04-25T00:01:05;94541.69;;;10.66;100.00
20027;BME280;10174;42.688;23.344;2023-04-25T00:03:33;94574.56;;;10.82;100.00
20027;BME280;10174;42.688;23.344;2023-04-25T00:05:59;94552.56;;;10.80;100.00
20027;BME280;10174;42.688;23.344;2023-04-25T00:08:29;94547.19;;;10.80;98.88
20027;BME280;10174;42.688;23.344;2023-04-25T00:10:54;94498.50;;;10.58;99.83
20027;BME280;10174;42.688;23.344;2023-04-25T00:13:20;94532.28;;;10.93;100.00
20027;BME280;10174;42.688;23.344;2023-04-25T00:15:46;94526.53;;;11.05;99.13
20027;BME280;10174;42.688;23.344;2023-04-25T00:18:13;94523.81;;;11.10;99.34
20027;BME280;10174;42.688;23.344;2023-04-25T00:20:39;94518.44;;;11.10;99.89
20027;BME280;10174;42.688;23.344;2023-04-25T00:23:04;94522.09;;;11.19;100.00
20027;BME280;10174;42.688;23.344;2023-04-25T00:25:30;94520.47;;;11.18;100.00
20027;BME280;10174;42.688;23.344;2023-04-25T00:27:55;94503.53;;;10.94;100.00
20027;BME280;10174;42.688;23.344;2023-04-25T00:30:21;94521.50;;;10.98;100.00
20027;BME280;10174;42.688;23.344;2023-04-25T00:32:46;94438.50;;;10.43;100.00
20027;BME280;10174;42.688;23.344;2023-04-25T00:35:11;94528.22;;;10.96;100.00
20027;BME280;10174;42.688;23.344;2023-04-25T00:37:37;94519.19;;;10.86;100.00
20027;BME280;10174;42.688;23.344;2023-04-25T00:40:05;94510.66;;;10.79;100.00
20027;BME280;10174;42.688;23.344;2023-04-25T00:42:31;94492.81;;;10.64;100.00
20027;BME280;10174;42.688;23.344;2023-04-25T00:44:58;94512.91;;;10.72;100.00
20027;BME280;10174;42.688;23.344;2023-04-25T00:47:25;94499.03;;;10.60;100.00
20027;BME280;10174;42.688;23.344;2023-04-25T00:49:50;94477.22;;;10.37;100.00
20027;BME280;10174;42.688;23.344;2023-04-25T00:52:16;94512.63;;;10.68;100.00
20027;BME280;10174;42.688;23.344;2023-04-25T00:54:42;94464.28;;;10.39;100.00
20027;BME280;10174;42.688;23.344;2023-04-25T00:57:08;94526.13;;;10.63;100.00
20027;BME280;10174;42.688;23.344;2023-04-25T00:59:35;94480.47;;;10.34;100.00
20027;BME280;10174;42.688;23.344;2023-04-25T01:02:01;94491.38;;;10.43;100.00
20027;BME280;10174;42.688;23.344;2023-04-25T01:04:29;94456.84;;;10.31;100.00
20027;BME280;10174;42.688;23.344;2023-04-25T01:06:55;94499.44;;;10.43;100.00
20027;BME280;10174;42.688;23.344;2023-04-25T01:09:22;94480.00;;;10.22;100.00
20027;BME280;10174;42.688;23.344;2023-04-25T01:11:47;94507.66;;;10.57;100.00
20027;BME280;10174;42.688;23.344;2023-04-25T01:14:13;94456.56;;;10.32;100.00
20027;BME280;10174;42.688;23.344;2023-04-25T01:16:38;94481.97;;;10.45;100.00
20027;BME280;10174;42.688;23.344;2023-04-25T01:19:10;94455.72;;;10.32;100.00
20027;BME280;10174;42.688;23.344;2023-04-25T01:21:39;94354.78;;;9.77;100.00
20027;BME280;10174;42.688;23.344;2023-04-25T01:24:05;94488.59;;;10.53;100.00
20027;BME280;10174;42.688;23.344;2023-04-25T01:26:32;94396.94;;;10.01;100.00
20027;BME280;10174;42.688;23.344;2023-04-25T01:28:58;94488.56;;;10.58;100.00
20027;BME280;10174;42.688;23.344;2023-04-25T01:31:25;94472.50;;;10.53;100.00
20027;BME280;10174;42.688;23.344;2023-04-25T01:33:52;94444.84;;;10.18;100.00
20027;BME280;10174;42.688;23.344;2023-04-25T01:36:18;94467.53;;;10.36;100.00
20027;BME280;10174;42.688;23.344;2023-04-25T01:38:43;94475.63;;;10.31;100.00
20027;BME280;10174;42.688;23.344;2023-04-25T01:41:09;94481.78;;;10.31;100.00
20027;BME280;10174;42.688;23.344;2023-04-25T01:43:35;94481.00;;;10.31;100.00
20027;BME280;10174;42.688;23.344;2023-04-25T01:46:01;94464.72;;;10.17;100.00
20027;BME280;10174;42.688;23.344;2023-04-25T01:48:26;94396.41;;;9.70;100.00
20027;BME280;10174;42.688;23.344;2023-04-25T01:50:51;94445.22;;;10.06;100.00
20027;BME280;10174;42.688;23.344;2023-04-25T01:53:17;94438.88;;;9.92;100.00
20027;BME280;10174;42.688;23.344;2023-04-25T01:55:42;94496.09;;;10.22;100.00
20027;BME280;10174;42.688;23.344;2023-04-25T01:58:08;94473.19;;;9.95;100.00
20027;BME280;10174;42.688;23.344;2023-04-25T02:00:35;94464.38;;;9.89;100.00
20027;BME280;10174;42.688;23.344;2023-04-25T02:03:04;94464.41;;;9.84;100.00
20027;BME280;10174;42.688;23.344;2023-04-25T02:05:34;94486.13;;;9.88;100.00
20027;BME280;10174;42.688;23.344;2023-04-25T02:08:00;94378.28;;;9.06;100.00
20027;BME280;10174;42.688;23.344;2023-04-25T02:10:26;94494.25;;;9.77;100.00
20027;BME280;10174;42.688;23.344;2023-04-25T02:12:51;94453.56;;;9.65;100.00
20027;BME280;10174;42.688;23.344;2023-04-25T02:15:17;94467.97;;;9.74;100.00
20027;BME280;10174;42.688;23.344;2023-04-25T02:17:42;94428.41;;;9.51;100.00
20027;BME280;10174;42.688;23.344;2023-04-25T02:20:08;94442.84;;;9.65;100.00
20027;BME280;10174;42.688;23.344;2023-04-25T02:22:33;94365.34;;;9.19;100.00
20027;BME280;10174;42.688;23.344;2023-04-25T02:25:00;94437.94;;;9.72;100.00
20027;BME280;10174;42.688;23.344;2023-04-25T02:27:26;94434.50;;;9.67;100.00
20027;BME280;10174;42.688;23.344;2023-04-25T02:29:51;94431.63;;;9.53;100.00
20027;BME280;10174;42.688;23.344;2023-04-25T02:32:17;94434.84;;;9.50;100.00
20027;BME280;10174;42.688;23.344;2023-04-25T02:34:42;94406.66;;;9.18;100.00
20027;BME280;10174;42.688;23.344;2023-04-25T02:37:07;94422.41;;;9.24;100.00
20027;BME280;10174;42.688;23.344;2023-04-25T02:39:33;94449.38;;;9.43;100.00
20027;BME280;10174;42.688;23.344;2023-04-25T02:41:58;94449.41;;;9.38;100.00
20027;BME280;10174;42.688;23.344;2023-04-25T02:44:23;94410.34;;;9.22;100.00
20027;BME280;10174;42.688;23.344;2023-04-25T02:46:49;94409.59;;;9.16;100.00
20027;BME280;10174;42.688;23.344;2023-04-25T02:49:14;94412.47;;;9.25;100.00
20027;BME280;10174;42.688;23.344;2023-04-25T02:51:39;94446.16;;;9.41;100.00
20027;BME280;10174;42.688;23.344;2023-04-25T02:54:05;94380.69;;;9.08;100.00
20027;BME280;10174;42.688;23.344;2023-04-25T02:56:31;94382.84;;;9.01;100.00
20027;BME280;10174;42.688;23.344;2023-04-25T02:58:57;94356.69;;;8.82;100.00
20027;BME280;10174;42.688;23.344;2023-04-25T03:01:22;94301.69;;;8.45;100.00
20027;BME280;10174;42.688;23.344;2023-04-25T03:03:47;94406.69;;;9.07;100.00
20027;BME280;10174;42.688;23.344;2023-04-25T03:06:13;94417.13;;;9.09;100.00
20027;BME280;10174;42.688;23.344;2023-04-25T03:08:38;94423.03;;;9.06;100.00
20027;BME280;10174;42.688;23.344;2023-04-25T03:11:04;94406.72;;;8.97;100.00
20027;BME280;10174;42.688;23.344;2023-04-25T03:13:29;94393.34;;;8.92;100.00
20027;BME280;10174;42.688;23.344;2023-04-25T03:15:55;94378.41;;;8.76;100.00
20027;BME280;10174;42.688;23.344;2023-04-25T03:18:20;94413.97;;;8.91;100.00
20027;BME280;10174;42.688;23.344;2023-04-25T03:20:46;94365.66;;;8.57;100.00
20027;BME280;10174;42.688;23.344;2023-04-25T03:23:11;94399.31;;;8.79;100.00
20027;BME280;10174;42.688;23.344;2023-04-25T03:25:37;94412.63;;;8.94;100.00
20027;BME280;10174;42.688;23.344;2023-04-25T03:28:02;94397.69;;;8.83;100.00
20027;BME280;10174;42.688;23.344;2023-04-25T03:30:28;94385.94;;;8.73;100.00
20027;BME280;10174;42.688;23.344;2023-04-25T03:32:53;94352.78;;;8.59;100.00
20027;BME280;10174;42.688;23.344;2023-04-25T03:35:18;94431.03;;;9.16;100.00
20027;BME280;10174;42.688;23.344;2023-04-25T03:37:44;94415.50;;;9.13;100.00
20027;BME280;10174;42.688;23.344;2023-04-25T03:40:12;94396.09;;;8.77;100.00
20027;BME280;10174;42.688;23.344;2023-04-25T03:42:38;94425.97;;;9.09;100.00
20027;BME280;10174;42.688;23.344;2023-04-25T03:45:03;94414.13;;;9.21;100.00
20027;BME280;10174;42.688;23.344;2023-04-25T03:47:29;94244.28;;;8.07;100.00
20027;BME280;10174;42.688;23.344;2023-04-25T03:49:54;94405.59;;;9.14;100.00
20027;BME280;10174;42.688;23.344;2023-04-25T03:52:20;94354.84;;;8.78;100.00
20027;BME280;10174;42.688;23.344;2023-04-25T03:54:45;94413.00;;;9.32;100.00
20027;BME280;10174;42.688;23.344;2023-04-25T03:57:10;94392.06;;;9.34;100.00
20027;BME280;10174;42.688;23.344;2023-04-25T03:59:36;94416.03;;;9.65;100.00
20027;BME280;10174;42.688;23.344;2023-04-25T04:02:01;94409.00;;;9.69;100.00
20027;BME280;10174;42.688;23.344;2023-04-25T04:04:26;94339.56;;;9.28;100.00
20027;BME280;10174;42.688;23.344;2023-04-25T04:06:52;94416.00;;;9.99;100.00
20027;BME280;10174;42.688;23.344;2023-04-25T04:09:18;94441.84;;;10.25;100.00
20027;BME280;10174;42.688;23.344;2023-04-25T04:11:44;94432.19;;;10.24;100.00
20027;BME280;10174;42.688;23.344;2023-04-25T04:14:10;94413.69;;;10.22;100.00
20027;BME280;10174;42.688;23.344;2023-04-25T04:16:35;94326.53;;;9.51;100.00
20027;BME280;10174;42.688;23.344;2023-04-25T04:19:01;94440.81;;;10.21;100.00
20027;BME280;10174;42.688;23.344;2023-04-25T04:21:26;94441.28;;;10.28;100.00
20027;BME280;10174;42.688;23.344;2023-04-25T04:23:52;94437.16;;;10.41;98.84
20027;BME280;10174;42.688;23.344;2023-04-25T04:26:19;94441.31;;;10.57;98.73
20027;BME280;10174;42.688;23.344;2023-04-25T04:28:44;94404.59;;;10.47;98.29
20027;BME280;10174;42.688;23.344;2023-04-25T04:31:10;94422.22;;;10.59;97.42
20027;BME280;10174;42.688;23.344;2023-04-25T04:33:36;94394.81;;;10.62;98.11
20027;BME280;10174;42.688;23.344;2023-04-25T04:36:02;94411.88;;;10.47;97.33
20027;BME280;10174;42.688;23.344;2023-04-25T04:38:28;94428.16;;;10.56;97.57
20027;BME280;10174;42.688;23.344;2023-04-25T04:40:54;94408.22;;;10.62;97.78
20027;BME280;10174;42.688;23.344;2023-04-25T04:43:19;94428.50;;;10.73;98.50
20027;BME280;10174;42.688;23.344;2023-04-25T04:45:44;94430.53;;;10.86;98.16
20027;BME280;10174;42.688;23.344;2023-04-25T04:48:10;94447.84;;;10.99;98.63
20027;BME280;10174;42.688;23.344;2023-04-25T04:50:36;94439.94;;;11.08;98.17
20027;BME280;10174;42.688;23.344;2023-04-25T04:53:02;94454.34;;;10.93;97.68
20027;BME280;10174;42.688;23.344;2023-04-25T04:55:27;94447.50;;;10.82;97.83
20027;BME280;10174;42.688;23.344;2023-04-25T04:57:53;94396.13;;;10.35;98.04
20027;BME280;10174;42.688;23.344;2023-04-25T05:00:19;94404.47;;;10.33;98.13
20027;BME280;10174;42.688;23.344;2023-04-25T05:02:45;94434.81;;;10.63;98.62
20027;BME280;10174;42.688;23.344;2023-04-25T05:05:11;94311.94;;;9.96;98.71
20027;BME280;10174;42.688;23.344;2023-04-25T05:07:36;94418.59;;;10.74;97.88
20027;BME280;10174;42.688;23.344;2023-04-25T05:10:02;94460.53;;;10.94;98.84
20027;BME280;10174;42.688;23.344;2023-04-25T05:12:28;94420.22;;;10.45;98.76
20027;BME280;10174;42.688;23.344;2023-04-25T05:14:54;94439.47;;;10.52;100.00
20027;BME280;10174;42.688;23.344;2023-04-25T05:17:19;94430.34;;;10.54;99.44
20027;BME280;10174;42.688;23.344;2023-04-25T05:19:44;94414.22;;;10.54;100.00
20027;BME280;10174;42.688;23.344;2023-04-25T05:22:10;94471.06;;;10.66;100.00
20027;BME280;10174;42.688;23.344;2023-04-25T05:24:35;94319.28;;;9.86;100.00
20027;BME280;10174;42.688;23.344;2023-04-25T05:27:01;94455.84;;;10.80;98.80
20027;BME280;10174;42.688;23.344;2023-04-25T05:29:26;94461.63;;;10.93;99.13
20027;BME280;10174;42.688;23.344;2023-04-25T05:31:52;94349.84;;;10.19;99.17
20027;BME280;10174;42.688;23.344;2023-04-25T05:34:18;94439.03;;;10.69;97.48
20027;BME280;10174;42.688;23.344;2023-04-25T05:36:43;94469.78;;;10.82;98.19
20027;BME280;10174;42.688;23.344;2023-04-25T05:39:09;94453.66;;;10.82;99.07
20027;BME280;10174;42.688;23.344;2023-04-25T05:41:34;94463.81;;;10.91;99.39
20027;BME280;10174;42.688;23.344;2023-04-25T05:44:00;94358.22;;;10.42;98.27
20027;BME280;10174;42.688;23.344;2023-04-25T05:46:25;94455.97;;;11.18;97.86
20027;BME280;10174;42.688;23.344;2023-04-25T05:48:51;94450.59;;;11.18;98.24
20027;BME280;10174;42.688;23.344;2023-04-25T05:51:16;94455.94;;;11.62;96.40
20027;BME280;10174;42.688;23.344;2023-04-25T05:53:43;94437.34;;;11.65;96.45
20027;BME280;10174;42.688;23.344;2023-04-25T05:56:09;94349.53;;;11.36;93.84
20027;BME280;10174;42.688;23.344;2023-04-25T05:58:34;94341.75;;;11.35;92.09
20027;BME280;10174;42.688;23.344;2023-04-25T06:01:01;94419.00;;;11.86;90.52
20027;BME280;10174;42.688;23.344;2023-04-25T06:03:27;94386.66;;;11.72;90.42
20027;BME280;10174;42.688;23.344;2023-04-25T06:05:53;94451.03;;;12.07;89.66
20027;BME280;10174;42.688;23.344;2023-04-25T06:08:18;94387.22;;;11.69;89.56
20027;BME280;10174;42.688;23.344;2023-04-25T06:10:44;94413.19;;;12.17;89.73
20027;BME280;10174;42.688;23.344;2023-04-25T06:13:09;94466.91;;;12.88;87.57
20027;BME280;10174;42.688;23.344;2023-04-25T06:15:35;94454.72;;;12.77;84.01
20027;BME280;10174;42.688;23.344;2023-04-25T06:18:00;94460.88;;;12.63;85.80
20027;BME280;10174;42.688;23.344;2023-04-25T06:20:26;94351.13;;;11.89;86.14
20027;BME280;10174;42.688;23.344;2023-04-25T06:22:51;94418.69;;;12.40;87.65
20027;BME280;10174;42.688;23.344;2023-04-25T06:25:17;94462.06;;;12.71;87.75
20027;BME280;10174;42.688;23.344;2023-04-25T06:27:43;94303.78;;;11.55;89.36
20027;BME280;10174;42.688;23.344;2023-04-25T06:30:08;94391.13;;;12.15;87.70
20027;BME280;10174;42.688;23.344;2023-04-25T06:32:34;94476.22;;;12.49;87.82
20027;BME280;10174;42.688;23.344;2023-04-25T06:35:00;94336.34;;;11.73;87.58
20027;BME280;10174;42.688;23.344;2023-04-25T06:37:26;94461.25;;;12.57;87.72
20027;BME280;10174;42.688;23.344;2023-04-25T06:39:52;94469.31;;;13.04;87.05
20027;BME280;10174;42.688;23.344;2023-04-25T06:42:17;94460.34;;;13.36;84.87
20027;BME280;10174;42.688;23.344;2023-04-25T06:44:43;94446.75;;;13.55;79.96
20027;BME280;10174;42.688;23.344;2023-04-25T06:47:08;94420.97;;;13.49;78.81
20027;BME280;10174;42.688;23.344;2023-04-25T06:49:33;94465.63;;;13.55;79.65
20027;BME280;10174;42.688;23.344;2023-04-25T06:51:59;94368.25;;;12.59;79.72
20027;BME280;10174;42.688;23.344;2023-04-25T06:54:24;94426.88;;;13.09;79.97
20027;BME280;10174;42.688;23.344;2023-04-25T06:56:52;94422.19;;;13.15;80.37
20027;BME280;10174;42.688;23.344;2023-04-25T06:59:18;94443.34;;;13.35;79.92
20027;BME280;10174;42.688;23.344;2023-04-25T07:01:43;94421.34;;;13.56;78.82
20027;BME280;10174;42.688;23.344;2023-04-25T07:04:08;94469.59;;;13.71;78.40
20027;BME280;10174;42.688;23.344;2023-04-25T07:06:34;94386.59;;;13.41;78.99
20027;BME280;10174;42.688;23.344;2023-04-25T07:09:03;94468.56;;;14.18;77.70
20027;BME280;10174;42.688;23.344;2023-04-25T07:11:28;94459.72;;;14.26;76.61
20027;BME280;10174;42.688;23.344;2023-04-25T07:13:54;94423.72;;;13.71;79.00
20027;BME280;10174;42.688;23.344;2023-04-25T07:16:19;94478.25;;;13.96;78.01
20027;BME280;10174;42.688;23.344;2023-04-25T07:18:44;94469.09;;;13.69;77.27
20027;BME280;10174;42.688;23.344;2023-04-25T07:21:10;94390.44;;;13.12;78.78
20027;BME280;10174;42.688;23.344;2023-04-25T07:23:35;94441.75;;;13.34;79.91
20027;BME280;10174;42.688;23.344;2023-04-25T07:26:01;94468.88;;;13.80;78.43
20027;BME280;10174;42.688;23.344;2023-04-25T07:28:26;94340.25;;;13.39;76.61
20027;BME280;10174;42.688;23.344;2023-04-25T07:30:51;94466.94;;;14.17;78.66
20027;BME280;10174;42.688;23.344;2023-04-25T07:33:17;94462.94;;;14.28;77.48
20027;BME280;10174;42.688;23.344;2023-04-25T07:35:42;94464.78;;;14.41;77.06
20027;BME280;10174;42.688;23.344;2023-04-25T07:38:07;94467.03;;;14.48;75.44
20027;BME280;10174;42.688;23.344;2023-04-25T07:40:33;94457.25;;;14.84;75.03
20027;BME280;10174;42.688;23.344;2023-04-25T07:42:59;94408.25;;;14.54;75.09
20027;BME280;10174;42.688;23.344;2023-04-25T07:45:24;94459.00;;;14.88;74.03
20027;BME280;10174;42.688;23.344;2023-04-25T07:47:50;94444.22;;;14.86;73.75
20027;BME280;10174;42.688;23.344;2023-04-25T07:50:16;94459.22;;;14.92;73.19
20027;BME280;10174;42.688;23.344;2023-04-25T07:52:41;94465.25;;;15.29;73.09
20027;BME280;10174;42.688;23.344;2023-04-25T07:55:07;94452.25;;;15.08;72.63
20027;BME280;10174;42.688;23.344;2023-04-25T07:57:33;94418.03;;;15.04;71.83
20027;BME280;10174;42.688;23.344;2023-04-25T07:59:58;94446.97;;;15.43;71.70
20027;BME280;10174;42.688;23.344;2023-04-25T08:02:23;94460.69;;;15.56;71.83
20027;BME280;10174;42.688;23.344;2023-04-25T08:04:51;94332.00;;;14.66;71.25
20027;BME280;10174;42.688;23.344;2023-04-25T08:07:16;94449.97;;;15.33;71.46
20027;BME280;10174;42.688;23.344;2023-04-25T08:09:41;94443.19;;;15.62;68.44
20027;BME280;10174;42.688;23.344;2023-04-25T08:12:07;94410.91;;;16.35;67.45
20027;BME280;10174;42.688;23.344;2023-04-25T08:14:32;94378.44;;;17.13;63.88
20027;BME280;10174;42.688;23.344;2023-04-25T08:17:02;94443.50;;;17.60;61.67
20027;BME280;10174;42.688;23.344;2023-04-25T08:19:29;94437.50;;;16.51;64.16
20027;BME280;10174;42.688;23.344;2023-04-25T08:21:54;94410.41;;;16.25;63.12
20027;BME280;10174;42.688;23.344;2023-04-25T08:24:20;94393.06;;;16.17;64.19
20027;BME280;10174;42.688;23.344;2023-04-25T08:26:46;94403.22;;;17.41;61.01
20027;BME280;10174;42.688;23.344;2023-04-25T08:29:11;94426.94;;;18.04;57.84
20027;BME280;10174;42.688;23.344;2023-04-25T08:31:37;94413.63;;;18.44;56.30
20027;BME280;10174;42.688;23.344;2023-04-25T08:34:02;94416.63;;;19.96;52.66
20027;BME280;10174;42.688;23.344;2023-04-25T08:36:28;94416.31;;;19.11;50.85
20027;BME280;10174;42.688;23.344;2023-04-25T08:38:53;94335.97;;;18.22;52.15
20027;BME280;10174;42.688;23.344;2023-04-25T08:41:19;94319.97;;;17.45;57.27
20027;BME280;10174;42.688;23.344;2023-04-25T08:43:48;94437.44;;;17.54;59.92
20027;BME280;10174;42.688;23.344;2023-04-25T08:46:18;94447.06;;;16.48;65.67
20027;BME280;10174;42.688;23.344;2023-04-25T08:48:45;94413.81;;;15.20;73.09
20027;BME280;10174;42.688;23.344;2023-04-25T08:51:18;94343.72;;;13.98;75.73
20027;BME280;10174;42.688;23.344;2023-04-25T08:53:49;94453.69;;;14.29;77.01
20027;BME280;10174;42.688;23.344;2023-04-25T08:56:16;94448.25;;;14.43;76.65
20027;BME280;10174;42.688;23.344;2023-04-25T08:58:50;94441.78;;;15.16;77.27
20027;BME280;10174;42.688;23.344;2023-04-25T09:01:16;94411.03;;;15.69;72.83
20027;BME280;10174;42.688;23.344;2023-04-25T09:03:42;94435.88;;;17.15;70.24
20027;BME280;10174;42.688;23.344;2023-04-25T09:06:10;94431.13;;;16.55;69.66
20027;BME280;10174;42.688;23.344;2023-04-25T09:08:37;94426.84;;;15.84;73.60
20027;BME280;10174;42.688;23.344;2023-04-25T09:11:02;94405.28;;;15.62;73.58
20027;BME280;10174;42.688;23.344;2023-04-25T09:13:28;94292.06;;;14.54;71.67
20027;BME280;10174;42.688;23.344;2023-04-25T09:15:55;94423.75;;;15.02;73.94
20027;BME280;10174;42.688;23.344;2023-04-25T09:18:29;94378.84;;;16.29;71.47
20027;BME280;10174;42.688;23.344;2023-04-25T09:20:56;94410.75;;;19.08;62.90
20027;BME280;10174;42.688;23.344;2023-04-25T09:23:22;94384.63;;;19.81;57.66
20027;BME280;10174;42.688;23.344;2023-04-25T09:25:51;94394.31;;;20.19;55.09
20027;BME280;10174;42.688;23.344;2023-04-25T09:28:23;94396.59;;;20.04;52.40
20027;BME280;10174;42.688;23.344;2023-04-25T09:30:54;94393.41;;;19.37;55.11
20027;BME280;10174;42.688;23.344;2023-04-25T09:33:20;94408.25;;;18.23;57.92
20027;BME280;10174;42.688;23.344;2023-04-25T09:35:52;94394.91;;;17.37;59.86
20027;BME280;10174;42.688;23.344;2023-04-25T09:38:20;94409.19;;;17.55;61.61
20027;BME280;10174;42.688;23.344;2023-04-25T09:40:48;94330.91;;;16.68;60.49
20027;BME280;10174;42.688;23.344;2023-04-25T09:43:24;94390.38;;;18.68;57.28
20027;BME280;10174;42.688;23.344;2023-04-25T09:45:51;94267.91;;;19.83;49.19
20027;BME280;10174;42.688;23.344;2023-04-25T09:48:19;94358.59;;;21.83;48.39
20027;BME280;10174;42.688;23.344;2023-04-25T09:50:51;94362.75;;;22.75;45.93
20027;BME280;10174;42.688;23.344;2023-04-25T09:53:28;94393.81;;;23.52;42.20
20027;BME280;10174;42.688;23.344;2023-04-25T09:55:55;94392.47;;;23.19;42.51
20027;BME280;10174;42.688;23.344;2023-04-25T09:58:23;94379.06;;;22.29;45.07
20027;BME280;10174;42.688;23.344;2023-04-25T10:00:50;94363.16;;;23.46;43.15
20027;BME280;10174;42.688;23.344;2023-04-25T10:03:17;94394.41;;;24.56;41.34
20027;BME280;10174;42.688;23.344;2023-04-25T10:05:46;94385.25;;;22.26;45.83
20027;BME280;10174;42.688;23.344;2023-04-25T10:08:13;94399.59;;;21.32;48.42
20027;BME280;10174;42.688;23.344;2023-04-25T10:10:40;94309.47;;;19.14;52.44
20027;BME280;10174;42.688;23.344;2023-04-25T10:13:05;94317.44;;;18.49;53.50
20027;BME280;10174;42.688;23.344;2023-04-25T10:15:34;94296.13;;;17.30;56.83
20027;BME280;10174;42.688;23.344;2023-04-25T10:18:01;94342.28;;;17.00;59.85
20027;BME280;10174;42.688;23.344;2023-04-25T10:20:26;94356.88;;;16.86;61.37
20027;BME280;10174;42.688;23.344;2023-04-25T10:22:54;94420.97;;;17.00;66.48
20027;BME280;10174;42.688;23.344;2023-04-25T10:25:22;94384.00;;;15.87;63.52
20027;BME280;10174;42.688;23.344;2023-04-25T10:27:51;94392.44;;;15.94;64.25
20027;BME280;10174;42.688;23.344;2023-04-25T10:30:18;94397.97;;;18.41;58.93
20027;BME280;10174;42.688;23.344;2023-04-25T10:32:44;94383.53;;;20.82;55.04
20027;BME280;10174;42.688;23.344;2023-04-25T10:35:25;94376.03;;;23.19;44.77
20027;BME280;10174;42.688;23.344;2023-04-25T10:37:57;94381.97;;;25.00;38.70
20027;BME280;10174;42.688;23.344;2023-04-25T10:40:23;94357.75;;;21.79;43.42
20027;BME280;10174;42.688;23.344;2023-04-25T10:42:49;94397.47;;;17.85;53.07
20027;BME280;10174;42.688;23.344;2023-04-25T10:45:16;94398.94;;;17.61;55.51
20027;BME280;10174;42.688;23.344;2023-04-25T10:47:45;94392.97;;;18.31;51.82
20027;BME280;10174;42.688;23.344;2023-04-25T10:50:11;94399.28;;;19.27;50.82
20027;BME280;10174;42.688;23.344;2023-04-25T10:52:38;94318.44;;;19.80;45.68
20027;BME280;10174;42.688;23.344;2023-04-25T10:55:05;94375.34;;;20.82;46.13
20027;BME280;10174;42.688;23.344;2023-04-25T11:00:00;94389.50;;;19.87;49.14
20027;BME280;10174;42.688;23.344;2023-04-25T11:02:27;94378.91;;;20.55;45.59
20027;BME280;10174;42.688;23.344;2023-04-25T11:04:54;94384.41;;;21.34;44.42
20027;BME280;10174;42.688;23.344;2023-04-25T11:10:04;94268.63;;;20.24;45.71
20027;BME280;10174;42.688;23.344;2023-04-25T11:12:32;94319.63;;;20.84;46.31
20027;BME280;10174;42.688;23.344;2023-04-25T11:15:03;94366.13;;;22.45;37.83
20027;BME280;10174;42.688;23.344;2023-04-25T11:17:29;94310.72;;;21.70;38.24
20027;BME280;10174;42.688;23.344;2023-04-25T11:19:55;94331.56;;;21.27;44.22
20027;BME280;10174;42.688;23.344;2023-04-25T11:22:21;94351.22;;;21.32;45.84
20027;BME280;10174;42.688;23.344;2023-04-25T11:24:47;94357.19;;;20.02;47.49
20027;BME280;10174;42.688;23.344;2023-04-25T11:27:13;94365.94;;;19.30;49.03
20027;BME280;10174;42.688;23.344;2023-04-25T11:29:38;94373.63;;;18.32;49.69
20027;BME280;10174;42.688;23.344;2023-04-25T11:32:04;94343.16;;;17.42;50.85
20027;BME280;10174;42.688;23.344;2023-04-25T11:34:30;94369.59;;;16.95;53.80
20027;BME280;10174;42.688;23.344;2023-04-25T11:36:56;94346.38;;;16.67;54.60
20027;BME280;10174;42.688;23.344;2023-04-25T11:39:24;94298.84;;;16.23;53.71
20027;BME280;10174;42.688;23.344;2023-04-25T11:41:50;94296.50;;;16.12;53.94
20027;BME280;10174;42.688;23.344;2023-04-25T11:44:17;94336.69;;;15.84;54.47
20027;BME280;10174;42.688;23.344;2023-04-25T11:46:43;94364.84;;;16.09;56.41
20027;BME280;10174;42.688;23.344;2023-04-25T11:49:08;94287.63;;;15.42;61.56
20027;BME280;10174;42.688;23.344;2023-04-25T11:51:47;94267.81;;;14.71;56.52
20027;BME280;10174;42.688;23.344;2023-04-25T11:54:14;94345.09;;;14.72;66.01
20027;BME280;10174;42.688;23.344;2023-04-25T11:56:44;94341.25;;;14.73;63.89
20027;BME280;10174;42.688;23.344;2023-04-25T11:59:09;94347.91;;;15.07;67.00
20027;BME280;10174;42.688;23.344;2023-04-25T12:01:37;94369.97;;;16.02;64.34
20027;BME280;10174;42.688;23.344;2023-04-25T12:04:19;94355.75;;;16.87;60.56
20027;BME280;10174;42.688;23.344;2023-04-25T12:06:46;94355.31;;;17.15;61.56
20027;BME280;10174;42.688;23.344;2023-04-25T12:09:20;94335.94;;;17.47;58.06
20027;BME280;10174;42.688;23.344;2023-04-25T12:11:53;94299.44;;;17.14;54.76
20027;BME280;10174;42.688;23.344;2023-04-25T12:14:27;94336.91;;;17.42;53.23
20027;BME280;10174;42.688;23.344;2023-04-25T12:16:55;94348.66;;;17.55;52.97
20027;BME280;10174;42.688;23.344;2023-04-25T12:19:22;94327.66;;;17.43;55.69
20027;BME280;10174;42.688;23.344;2023-04-25T12:21:48;94311.09;;;17.78;50.88
20027;BME280;10174;42.688;23.344;2023-04-25T12:24:21;94317.59;;;17.65;54.26
20027;BME280;10174;42.688;23.344;2023-04-25T12:27:09;94356.28;;;17.83;55.09
20027;BME280;10174;42.688;23.344;2023-04-25T12:29:34;94239.28;;;17.67;51.33
20027;BME280;10174;42.688;23.344;2023-04-25T12:32:00;94313.75;;;17.66;54.73
20027;BME280;10174;42.688;23.344;2023-04-25T12:34:27;94325.81;;;17.35;54.69
20027;BME280;10174;42.688;23.344;2023-04-25T12:36:53;94423.50;;;16.31;59.81
20027;BME280;10174;42.688;23.344;2023-04-25T12:39:23;94429.63;;;13.96;74.93
20027;BME280;10174;42.688;23.344;2023-04-25T12:41:50;94401.78;;;12.67;85.65
20027;BME280;10174;42.688;23.344;2023-04-25T12:44:17;94371.94;;;12.03;87.91
20027;BME280;10174;42.688;23.344;2023-04-25T12:46:42;94416.53;;;12.09;88.21
20027;BME280;10174;42.688;23.344;2023-04-25T12:49:08;94320.25;;;11.16;88.94